createdAt,value
2022-12-18T00:00:04.799Z,92.96
2022-12-18T00:01:04.727Z,93.70
2022-12-18T00:02:04.887Z,93.91
2022-12-18T00:03:04.837Z,93.60
2022-12-18T00:04:04.876Z,93.07
2022-12-18T00:05:04.660Z,93.17
2022-12-18T00:06:04.731Z,93.49
2022-12-18T00:07:04.683Z,93.28
2022-12-18T00:08:04.646Z,93.60
2022-12-18T00:09:04.614Z,93.17
2022-12-18T00:10:04.626Z,93.17
2022-12-18T00:11:04.599Z,93.60
2022-12-18T00:13:08.266Z,93.91
2022-12-18T00:14:04.603Z,93.70
2022-12-18T00:15:04.562Z,93.80
2022-12-18T00:16:04.637Z,93.80
2022-12-18T00:17:04.550Z,93.70
2022-12-18T00:18:04.579Z,93.91
2022-12-18T00:19:10.549Z,94.13
2022-12-18T00:20:04.513Z,93.91
2022-12-18T00:21:04.504Z,94.02
2022-12-18T00:22:04.505Z,93.49
2022-12-18T00:23:04.481Z,93.38
2022-12-18T00:24:04.510Z,93.17
2022-12-18T00:25:04.492Z,93.17
2022-12-18T00:26:04.473Z,93.17
2022-12-18T00:27:04.465Z,92.96
2022-12-18T00:28:04.441Z,92.26
2022-12-18T00:29:04.428Z,92.15
2022-12-18T00:30:04.445Z,92.36
2022-12-18T00:31:04.512Z,92.15
2022-12-18T00:32:04.497Z,92.26
2022-12-18T00:33:04.386Z,91.52
2022-12-18T00:34:04.394Z,91.52
2022-12-18T00:35:04.361Z,91.83
2022-12-18T00:36:04.382Z,92.15
2022-12-18T00:37:04.339Z,92.30
2022-12-18T00:38:04.348Z,92.41
2022-12-18T00:39:04.324Z,92.41
2022-12-18T00:40:04.329Z,91.88
2022-12-18T00:41:04.357Z,92.09
2022-12-18T00:42:04.313Z,92.51
2022-12-18T00:43:04.285Z,92.62
2022-12-18T00:44:04.295Z,92.41
2022-12-18T00:45:09.083Z,92.19
2022-12-18T00:46:04.343Z,92.41
2022-12-18T00:47:04.278Z,92.26
2022-12-18T00:48:04.256Z,91.98
2022-12-18T00:49:04.228Z,91.98
2022-12-18T00:50:04.235Z,91.66
2022-12-18T00:51:04.207Z,91.66
2022-12-18T00:52:04.215Z,92.19
2022-12-18T00:53:04.227Z,92.30
2022-12-18T00:54:04.191Z,92.19
2022-12-18T00:55:06.441Z,92.19
2022-12-18T00:56:04.237Z,92.51
2022-12-18T00:57:04.150Z,93.04
2022-12-18T00:58:04.169Z,93.15
2022-12-18T00:59:04.154Z,92.94
2022-12-18T01:00:04.150Z,92.51
2022-12-18T01:01:04.174Z,92.30
2022-12-18T01:02:04.249Z,92.51
2022-12-18T01:03:04.204Z,92.55
2022-12-18T01:04:04.098Z,92.34
2022-12-18T01:05:04.080Z,92.34
2022-12-18T01:06:04.110Z,92.77
2022-12-18T01:07:04.062Z,92.45
2022-12-18T01:08:04.102Z,92.24
2022-12-18T01:09:04.046Z,92.34
2022-12-18T01:10:04.040Z,92.55
2022-12-18T01:11:04.013Z,92.13
2022-12-18T01:12:04.032Z,91.81
2022-12-18T01:13:04.005Z,91.71
2022-12-18T01:14:03.997Z,91.92
2022-12-18T01:15:03.983Z,92.45
2022-12-18T01:16:04.027Z,92.45
2022-12-18T01:17:03.983Z,92.24
2022-12-18T01:18:03.971Z,92.45
2022-12-18T01:19:03.942Z,91.92
2022-12-18T01:20:03.936Z,91.71
2022-12-18T01:21:03.919Z,91.81
2022-12-18T01:22:03.922Z,91.92
2022-12-18T01:23:03.939Z,91.49
2022-12-18T01:24:03.905Z,91.28
2022-12-18T01:25:03.890Z,91.71
2022-12-18T01:26:03.894Z,91.81
2022-12-18T01:27:03.869Z,92.02
2022-12-18T01:28:03.907Z,92.24
2022-12-18T01:29:03.856Z,91.81
2022-12-18T01:30:03.850Z,90.96
2022-12-18T01:31:03.824Z,91.28
2022-12-18T01:32:03.904Z,91.28
2022-12-18T01:33:03.817Z,91.39
2022-12-18T01:34:03.804Z,91.60
2022-12-18T01:35:03.798Z,91.60
2022-12-18T01:36:03.801Z,91.28
2022-12-18T01:37:03.780Z,91.39
2022-12-18T01:38:03.775Z,91.60
2022-12-18T01:39:03.742Z,92.34
2022-12-18T01:40:03.746Z,92.34
2022-12-18T01:41:03.721Z,92.66
2022-12-18T01:42:03.728Z,92.98
2022-12-18T01:43:03.726Z,92.77
2022-12-18T01:44:03.710Z,93.62
2022-12-18T01:45:03.696Z,93.62
2022-12-18T01:46:03.731Z,93.72
2022-12-18T01:47:03.670Z,93.51
2022-12-18T01:48:03.693Z,93.62
2022-12-18T01:49:03.648Z,93.72
2022-12-18T01:50:03.664Z,93.93
2022-12-18T01:51:03.638Z,93.83
2022-12-18T01:52:03.643Z,93.62
2022-12-18T01:53:03.631Z,93.62
2022-12-18T01:54:03.610Z,93.40
2022-12-18T01:55:03.584Z,93.40
2022-12-18T01:56:03.596Z,93.30
2022-12-18T01:57:03.568Z,93.08
2022-12-18T01:58:03.573Z,93.30
2022-12-18T01:59:03.566Z,93.30
2022-12-18T02:00:03.566Z,93.19
2022-12-18T02:01:03.608Z,93.30
2022-12-18T02:02:03.742Z,93.62
2022-12-18T02:03:03.538Z,93.62
2022-12-18T02:04:03.530Z,93.30
2022-12-18T02:05:03.499Z,93.19
2022-12-18T02:06:03.504Z,93.26
2022-12-18T02:07:03.482Z,93.30
2022-12-18T02:08:03.500Z,93.62
2022-12-18T02:09:03.461Z,93.57
2022-12-18T02:10:03.467Z,93.68
2022-12-18T06:00:44.866Z,91.79
2022-12-18T06:01:45.893Z,92.21
2022-12-18T06:02:45.904Z,91.68
2022-12-18T06:03:46.550Z,92.00
2022-12-18T06:04:45.801Z,92.11
2022-12-18T06:05:45.822Z,91.89
2022-12-18T06:06:45.788Z,91.79
2022-12-18T06:07:45.790Z,92.11
2022-12-18T06:08:46.659Z,92.32
2022-12-18T06:09:45.733Z,92.32
2022-12-18T06:10:45.780Z,92.21
2022-12-18T06:11:45.721Z,92.32
2022-12-18T06:12:45.737Z,91.89
2022-12-18T06:13:45.701Z,91.89
2022-12-18T06:14:45.709Z,92.21
2022-12-18T06:15:51.778Z,92.43
2022-12-18T06:16:45.683Z,92.32
2022-12-18T06:17:45.660Z,92.74
2022-12-18T06:18:45.693Z,92.74
2022-12-18T06:19:45.644Z,92.64
2022-12-18T06:20:45.652Z,92.70
2022-12-18T06:21:45.669Z,92.21
2022-12-18T06:22:45.618Z,91.79
2022-12-18T06:23:45.605Z,91.68
2022-12-18T06:24:45.613Z,91.47
2022-12-18T06:25:45.587Z,91.25
2022-12-18T06:26:45.591Z,91.47
2022-12-18T06:27:45.591Z,92.11
2022-12-18T06:28:45.596Z,92.32
2022-12-18T06:29:45.547Z,92.53
2022-12-18T06:30:45.550Z,93.27
2022-12-18T06:31:45.603Z,93.49
2022-12-18T06:32:45.555Z,94.02
2022-12-18T06:33:45.519Z,94.12
2022-12-18T06:34:45.580Z,93.66
2022-12-18T06:35:45.512Z,93.06
2022-12-18T06:36:45.507Z,92.28
2022-12-18T06:37:45.484Z,92.21
2022-12-18T06:38:45.489Z,91.79
2022-12-18T06:39:45.485Z,92.32
2022-12-18T06:40:45.469Z,92.32
2022-12-18T06:41:45.419Z,92.32
2022-12-18T06:42:45.435Z,92.21
2022-12-18T06:43:45.412Z,92.21
2022-12-18T06:44:45.433Z,92.21
2022-12-18T06:45:45.418Z,92.53
2022-12-18T06:46:45.390Z,92.00
2022-12-18T06:47:45.318Z,91.58
2022-12-18T06:48:45.372Z,91.68
2022-12-18T06:49:45.306Z,92.11
2022-12-18T06:50:45.332Z,92.21
2022-12-18T06:51:45.293Z,92.21
2022-12-18T06:52:45.365Z,92.21
2022-12-18T06:53:45.305Z,92.00
2022-12-18T06:54:45.279Z,91.68
2022-12-18T06:55:45.241Z,91.68
2022-12-18T06:56:45.257Z,91.58
2022-12-18T06:57:45.217Z,91.79
2022-12-18T06:58:45.227Z,91.58
2022-12-18T06:59:45.208Z,91.15
2022-12-18T07:00:45.237Z,91.89
2022-12-18T07:01:45.405Z,92.64
2022-12-18T07:02:45.311Z,92.64
2022-12-18T07:03:45.743Z,92.60
2022-12-18T07:04:45.177Z,92.70
2022-12-18T07:05:45.145Z,92.60
2022-12-18T07:06:45.147Z,92.28
2022-12-18T07:07:45.114Z,92.32
2022-12-18T07:08:45.137Z,92.43
2022-12-18T07:09:45.107Z,92.32
2022-12-18T07:10:48.188Z,91.89
2022-12-18T07:11:45.077Z,92.00
2022-12-18T07:12:45.083Z,91.79
2022-12-18T07:13:45.062Z,91.05
2022-12-18T07:14:45.080Z,91.15
2022-12-18T07:15:45.038Z,91.05
2022-12-18T07:16:45.080Z,91.25
2022-12-18T07:17:45.024Z,91.36
2022-12-18T07:18:45.026Z,91.36
2022-12-18T07:19:45.054Z,91.89
2022-12-18T07:20:45.006Z,91.58
2022-12-18T07:21:44.984Z,91.15
2022-12-18T07:22:44.993Z,90.83
2022-12-18T07:23:44.960Z,90.72
2022-12-18T07:24:44.966Z,90.83
2022-12-18T07:25:44.957Z,91.05
2022-12-18T07:26:45.021Z,91.36
2022-12-18T07:27:44.949Z,91.36
2022-12-18T07:28:44.941Z,91.47
2022-12-18T07:29:44.917Z,90.72
2022-12-18T07:30:44.896Z,90.52
2022-12-18T07:31:44.961Z,90.72
2022-12-18T07:32:44.917Z,90.52
2022-12-18T07:33:44.869Z,90.72
2022-12-18T07:34:44.890Z,90.83
2022-12-18T07:35:44.843Z,90.94
2022-12-18T07:36:44.863Z,91.05
2022-12-18T07:37:44.827Z,91.36
2022-12-18T07:38:44.860Z,91.36
2022-12-18T07:39:44.810Z,91.05
2022-12-18T07:40:44.815Z,90.94
2022-12-18T07:41:46.942Z,91.05
2022-12-18T07:42:44.805Z,91.25
2022-12-18T07:43:45.009Z,91.68
2022-12-18T07:44:44.795Z,91.68
2022-12-18T07:45:44.807Z,91.36
2022-12-18T07:46:44.750Z,91.36
2022-12-18T07:47:44.733Z,91.47
2022-12-18T07:48:46.306Z,91.25
2022-12-18T07:49:44.748Z,91.25
2022-12-18T07:50:44.709Z,91.25
2022-12-18T07:51:44.702Z,92.00
2022-12-18T07:52:44.712Z,92.32
2022-12-18T07:53:44.675Z,91.36
2022-12-18T07:54:44.689Z,91.58
2022-12-18T07:56:11.184Z,91.47
2022-12-18T07:56:44.658Z,91.47
2022-12-18T07:57:55.177Z,91.47
2022-12-18T07:58:44.646Z,91.64
2022-12-18T07:59:44.612Z,91.64
2022-12-18T08:00:44.626Z,91.43
2022-12-18T08:01:44.661Z,91.64
2022-12-18T08:02:44.786Z,91.85
2022-12-18T08:03:44.590Z,91.53
2022-12-18T08:04:44.581Z,91.43
2022-12-18T08:05:44.582Z,91.32
2022-12-18T08:06:47.807Z,91.85
2022-12-18T08:07:44.568Z,91.85
2022-12-18T08:08:44.532Z,91.43
2022-12-18T08:09:44.519Z,91.75
2022-12-18T08:10:44.519Z,91.85
2022-12-18T08:11:44.487Z,92.28
2022-12-18T08:12:44.521Z,92.07
2022-12-18T08:13:44.491Z,91.53
2022-12-18T08:14:44.479Z,91.96
2022-12-18T08:15:44.463Z,91.53
2022-12-18T08:16:44.513Z,91.53
2022-12-18T08:17:44.456Z,92.28
2022-12-18T08:18:44.465Z,92.45
2022-12-18T08:19:44.413Z,92.13
2022-12-18T08:20:44.433Z,91.81
2022-12-18T08:21:44.405Z,91.92
2022-12-18T08:22:44.415Z,91.92
2022-12-18T08:23:44.456Z,92.02
2022-12-18T08:24:44.386Z,92.02
2022-12-18T08:25:44.360Z,92.13
2022-12-18T08:27:00.840Z,91.92
2022-12-18T08:27:44.360Z,92.02
2022-12-18T08:28:44.378Z,92.02
2022-12-18T08:29:44.319Z,92.13
2022-12-18T08:30:44.396Z,92.13
2022-12-18T08:31:44.400Z,92.34
2022-12-18T08:32:44.328Z,92.66
2022-12-18T08:33:44.603Z,92.34
2022-12-18T08:34:44.295Z,92.24
2022-12-18T08:35:46.097Z,92.34
2022-12-18T08:36:44.271Z,92.55
2022-12-18T08:37:44.233Z,92.55
2022-12-18T08:38:44.273Z,92.51
2022-12-18T08:39:44.240Z,92.34
2022-12-18T08:40:44.237Z,92.51
2022-12-18T08:41:44.432Z,92.62
2022-12-18T08:42:44.217Z,92.41
2022-12-18T08:43:44.191Z,92.62
2022-12-18T08:44:44.181Z,92.72
2022-12-18T08:45:44.241Z,92.72
2022-12-18T08:46:44.238Z,92.62
2022-12-18T08:47:44.141Z,92.72
2022-12-18T08:48:44.139Z,92.72
2022-12-18T08:49:44.127Z,92.94
2022-12-18T08:50:44.137Z,92.94
2022-12-18T08:51:44.116Z,92.83
2022-12-18T08:52:44.106Z,92.79
2022-12-18T08:53:44.246Z,93.00
2022-12-18T08:54:44.089Z,93.11
2022-12-18T08:55:48.623Z,93.21
2022-12-18T08:56:44.088Z,93.32
2022-12-18T08:57:44.079Z,93.32
2022-12-18T08:58:44.066Z,93.74
2022-12-18T08:59:44.019Z,93.53
2022-12-18T09:00:44.030Z,93.32
2022-12-18T09:01:44.100Z,93.17
2022-12-18T09:02:44.194Z,93.17
2022-12-18T09:03:44.545Z,92.85
2022-12-18T09:04:44.019Z,92.85
2022-12-18T09:05:43.971Z,92.85
2022-12-18T09:06:43.984Z,92.96
2022-12-18T09:07:43.959Z,93.28
2022-12-18T09:08:44.427Z,93.17
2022-12-18T09:09:43.943Z,92.85
2022-12-18T09:10:43.934Z,92.85
2022-12-18T09:11:43.917Z,92.85
2022-12-18T09:12:43.934Z,92.85
2022-12-18T09:13:43.940Z,92.64
2022-12-18T09:14:43.902Z,92.64
2022-12-18T09:15:43.862Z,92.64
2022-12-18T09:16:43.991Z,92.75
2022-12-18T09:17:43.858Z,92.75
2022-12-18T09:18:44.029Z,92.92
2022-12-18T09:19:43.833Z,92.60
2022-12-18T09:20:43.828Z,92.07
2022-12-18T09:21:48.023Z,91.75
2022-12-18T09:22:43.817Z,91.75
2022-12-18T09:23:43.779Z,91.75
2022-12-18T09:24:43.829Z,91.96
2022-12-18T09:25:43.768Z,91.75
2022-12-18T09:26:45.227Z,91.12
2022-12-18T09:27:43.746Z,91.01
2022-12-18T09:28:44.067Z,91.08
2022-12-18T09:29:43.752Z,91.08
2022-12-18T09:30:43.848Z,91.29
2022-12-18T09:31:43.726Z,91.18
2022-12-18T09:32:43.725Z,90.76
2022-12-18T09:33:43.684Z,90.65
2022-12-18T09:34:43.697Z,91.08
2022-12-18T09:35:43.665Z,91.18
2022-12-18T09:36:43.703Z,91.08
2022-12-18T09:37:43.676Z,90.23
2022-12-18T09:38:43.862Z,90.65
2022-12-18T09:39:43.646Z,90.55
2022-12-18T09:40:43.646Z,90.01
2022-12-18T09:41:43.634Z,90.33
2022-12-18T09:42:43.627Z,90.44
2022-12-18T09:43:43.633Z,90.30
2022-12-18T09:44:45.699Z,90.08
2022-12-18T09:45:43.570Z,90.33
2022-12-18T09:46:43.697Z,89.66
2022-12-18T09:47:43.566Z,89.76
2022-12-18T09:48:43.864Z,90.08
2022-12-18T09:49:43.532Z,89.55
2022-12-18T09:50:43.548Z,89.45
2022-12-18T09:51:43.545Z,89.55
2022-12-18T09:52:43.517Z,89.55
2022-12-18T09:53:43.507Z,89.55
2022-12-18T09:54:43.502Z,89.87
2022-12-18T09:55:43.874Z,89.98
2022-12-18T09:56:43.462Z,89.76
2022-12-18T09:57:43.484Z,90.08
2022-12-18T09:58:43.713Z,90.08
2022-12-18T09:59:43.448Z,90.36
2022-12-18T10:00:43.447Z,89.94
2022-12-18T10:01:44.768Z,89.30
2022-12-18T10:02:43.568Z,88.77
2022-12-18T10:03:43.406Z,88.98
2022-12-18T10:04:43.426Z,88.67
2022-12-18T10:05:43.421Z,88.24
2022-12-18T10:06:43.393Z,88.24
2022-12-18T10:07:43.374Z,88.35
2022-12-18T10:08:43.751Z,88.24
2022-12-18T10:09:43.380Z,88.24
2022-12-18T10:10:43.351Z,88.56
2022-12-18T10:11:43.338Z,88.56
2022-12-18T10:12:43.314Z,88.56
2022-12-18T10:13:43.350Z,88.20
2022-12-18T10:14:43.287Z,88.31
2022-12-18T10:15:43.355Z,88.42
2022-12-18T10:16:43.294Z,88.20
2022-12-18T10:17:43.275Z,88.31
2022-12-18T10:18:43.527Z,88.42
2022-12-18T10:19:43.261Z,88.42
2022-12-18T10:20:43.223Z,88.62
2022-12-18T10:21:43.255Z,88.42
2022-12-18T10:22:43.217Z,88.42
2022-12-18T10:23:48.014Z,89.05
2022-12-18T10:24:43.204Z,88.42
2022-12-18T10:25:43.198Z,88.69
2022-12-18T10:26:43.171Z,88.37
2022-12-18T10:27:43.184Z,88.48
2022-12-18T10:28:43.655Z,88.48
2022-12-18T10:29:43.158Z,88.17
2022-12-18T10:30:43.242Z,88.17
2022-12-18T10:31:43.231Z,88.90
2022-12-18T10:32:43.098Z,88.48
2022-12-18T10:33:43.102Z,88.59
2022-12-18T10:34:43.071Z,88.06
2022-12-18T10:35:43.115Z,88.44
2022-12-18T10:36:43.075Z,87.92
2022-12-18T10:37:43.077Z,88.23
2022-12-18T10:38:43.480Z,88.02
2022-12-18T10:39:43.059Z,88.44
2022-12-18T10:40:43.024Z,88.23
2022-12-18T10:41:43.072Z,88.23
2022-12-18T10:42:43.003Z,88.44
2022-12-18T10:43:43.010Z,88.44
2022-12-18T10:44:42.982Z,88.02
2022-12-18T10:45:42.996Z,88.23
2022-12-18T10:46:42.993Z,87.28
2022-12-18T10:47:43.025Z,87.70
2022-12-18T10:48:43.581Z,87.70
2022-12-18T10:49:42.960Z,87.55
2022-12-18T10:51:42.951Z,87.77
2022-12-18T10:52:45.208Z,87.66
2022-12-18T10:53:43.029Z,88.09
2022-12-18T10:54:42.882Z,87.55
2022-12-18T10:55:42.888Z,87.77
2022-12-18T10:56:42.873Z,87.77
2022-12-18T10:57:42.872Z,87.24
2022-12-18T10:58:43.357Z,87.87
2022-12-18T10:59:42.906Z,87.98
2022-12-18T11:00:42.820Z,87.45
2022-12-18T11:01:42.951Z,87.24
2022-12-18T11:02:42.995Z,87.30
2022-12-18T11:03:42.892Z,86.88
2022-12-18T11:04:42.798Z,87.20
2022-12-18T11:05:42.791Z,86.88
2022-12-18T11:06:42.798Z,86.99
2022-12-18T11:07:42.774Z,87.30
2022-12-18T11:08:43.252Z,86.88
2022-12-18T11:09:42.757Z,87.20
2022-12-18T11:10:42.730Z,86.99
2022-12-18T11:11:42.821Z,87.20
2022-12-18T11:12:42.701Z,87.52
2022-12-18T11:13:42.712Z,86.99
2022-12-18T11:14:46.894Z,86.95
2022-12-18T11:15:42.700Z,86.95
2022-12-18T11:16:57.858Z,86.63
2022-12-18T11:17:42.676Z,86.53
2022-12-18T11:18:43.255Z,86.63
2022-12-18T11:19:42.646Z,86.84
2022-12-18T11:20:42.722Z,87.05
2022-12-18T11:21:42.628Z,86.95
2022-12-18T11:22:42.625Z,86.63
2022-12-18T11:23:42.638Z,86.10
2022-12-18T11:24:42.582Z,86.42
2022-12-18T11:25:42.583Z,86.42
2022-12-18T11:26:42.577Z,86.91
2022-12-18T11:27:48.028Z,86.49
2022-12-18T11:28:43.059Z,86.17
2022-12-18T11:29:46.622Z,85.96
2022-12-18T11:30:42.544Z,85.85
2022-12-18T11:31:42.617Z,85.85
2022-12-18T11:32:42.508Z,85.85
2022-12-18T11:33:53.342Z,86.38
2022-12-18T11:34:42.492Z,86.17
2022-12-18T11:35:42.486Z,85.85
2022-12-18T11:36:43.028Z,86.49
2022-12-18T11:37:42.460Z,86.49
2022-12-18T11:38:42.809Z,86.07
2022-12-18T11:39:42.462Z,87.12
2022-12-18T11:40:42.429Z,87.02
2022-12-18T11:41:42.416Z,86.59
2022-12-18T11:42:42.387Z,85.96
2022-12-18T11:43:42.402Z,86.91
2022-12-18T11:44:42.421Z,86.98
2022-12-18T11:45:42.409Z,86.13
2022-12-18T11:46:42.426Z,86.45
2022-12-18T11:47:42.361Z,86.87
2022-12-18T11:48:42.808Z,86.34
2022-12-18T11:49:42.371Z,86.87
2022-12-18T11:50:42.333Z,86.77
2022-12-18T11:51:42.313Z,86.66
2022-12-18T11:52:42.284Z,86.55
2022-12-18T11:53:42.296Z,86.66
2022-12-18T11:54:42.275Z,87.08
2022-12-18T11:55:42.313Z,86.34
2022-12-18T11:56:42.243Z,85.71
2022-12-18T11:57:42.253Z,86.45
2022-12-18T11:58:42.542Z,85.92
2022-12-18T11:59:42.253Z,86.87
2022-12-18T12:00:42.242Z,85.99
2022-12-18T12:01:44.544Z,85.46
2022-12-18T12:02:42.301Z,85.36
2022-12-18T12:03:42.764Z,85.14
2022-12-18T12:04:42.166Z,84.94
2022-12-18T12:05:42.182Z,84.94
2022-12-18T12:06:42.179Z,85.14
2022-12-18T12:07:42.168Z,85.36
2022-12-18T12:08:42.142Z,85.57
2022-12-18T12:09:42.133Z,85.57
2022-12-18T12:10:42.098Z,85.67
2022-12-18T12:11:42.129Z,85.25
2022-12-18T12:12:47.930Z,85.85
2022-12-18T12:13:42.574Z,84.89
2022-12-18T12:14:42.068Z,85.00
2022-12-18T12:16:35.852Z,85.53
2022-12-18T12:17:37.455Z,85.53
2022-12-18T12:18:36.732Z,85.21
2022-12-18T12:19:36.737Z,84.47
2022-12-18T12:20:36.725Z,84.89
2022-12-18T12:21:36.723Z,85.00
2022-12-18T12:22:36.680Z,85.21
2022-12-18T12:23:36.715Z,85.85
2022-12-18T12:24:36.690Z,85.42
2022-12-18T12:25:36.701Z,85.31
2022-12-18T12:26:36.666Z,85.74
2022-12-18T12:27:36.667Z,85.38
2022-12-18T12:28:36.649Z,85.49
2022-12-18T12:29:36.652Z,85.17
2022-12-18T12:30:36.633Z,85.07
2022-12-18T12:31:36.667Z,85.70
2022-12-18T12:32:36.594Z,84.44
2022-12-18T12:33:36.618Z,85.28
2022-12-18T12:34:36.562Z,85.49
2022-12-18T12:35:36.573Z,84.96
2022-12-18T12:36:36.542Z,85.38
2022-12-18T12:37:36.572Z,85.60
2022-12-18T12:38:36.531Z,86.12
2022-12-18T12:39:36.541Z,86.44
2022-12-18T12:40:58.577Z,86.40
2022-12-18T12:41:36.523Z,86.40
2022-12-18T12:42:36.518Z,85.66
2022-12-18T12:43:36.518Z,85.13
2022-12-18T12:44:36.489Z,84.40
2022-12-18T12:45:36.522Z,84.82
2022-12-18T12:46:36.439Z,85.03
2022-12-18T12:47:36.464Z,85.13
2022-12-18T12:48:36.428Z,85.45
2022-12-18T13:13:43.554Z,85.24
2022-12-18T13:13:48.743Z,85.24
2022-12-18T13:13:54.581Z,84.99
2022-12-18T13:14:54.534Z,84.67
2022-12-18T13:15:54.533Z,84.67
2022-12-18T13:16:54.509Z,85.73
2022-12-18T13:17:54.535Z,84.99
2022-12-18T13:18:54.514Z,85.31
2022-12-18T13:19:54.502Z,85.62
2022-12-18T13:20:59.780Z,85.20
2022-12-18T13:21:54.471Z,86.04
2022-12-18T13:22:54.438Z,85.41
2022-12-18T13:23:54.433Z,85.83
2022-12-18T13:24:54.430Z,85.73
2022-12-18T13:25:54.488Z,84.67
2022-12-18T13:26:54.389Z,85.62
2022-12-18T13:27:54.403Z,85.20
2022-12-18T13:28:54.394Z,85.31
2022-12-18T13:29:54.381Z,85.31
2022-12-18T13:30:55.692Z,85.62
2022-12-18T13:31:54.359Z,85.62
2022-12-18T13:32:54.358Z,85.73
2022-12-18T13:34:25.698Z,85.10
2022-12-18T13:34:54.341Z,85.41
2022-12-18T13:35:54.340Z,85.20
2022-12-18T13:36:54.306Z,85.94
2022-12-18T13:37:54.321Z,84.95
2022-12-18T13:38:54.262Z,84.67
2022-12-18T13:39:54.287Z,84.78
2022-12-18T13:40:54.303Z,84.42
2022-12-18T13:41:54.268Z,85.41
2022-12-18T13:42:54.237Z,84.84
2022-12-18T13:43:54.274Z,83.94
2022-12-18T13:44:54.204Z,84.36
2022-12-18T13:45:54.260Z,85.20
2022-12-18T13:46:54.185Z,85.58
2022-12-18T13:47:54.212Z,85.37
2022-12-18T13:48:54.190Z,85.16
2022-12-18T13:49:54.203Z,84.67
2022-12-18T13:50:54.165Z,84.67
2022-12-18T13:51:54.219Z,84.84
2022-12-18T13:52:54.144Z,85.27
2022-12-18T13:53:54.119Z,85.16
2022-12-18T13:54:54.131Z,85.10
2022-12-18T13:55:55.038Z,85.10
2022-12-18T13:56:54.148Z,85.31
2022-12-18T13:57:54.072Z,85.62
2022-12-18T13:58:54.108Z,85.62
2022-12-18T13:59:54.051Z,86.25
2022-12-18T14:00:54.181Z,85.62
2022-12-18T14:01:54.245Z,85.31
2022-12-18T14:02:54.237Z,85.83
2022-12-18T14:03:54.026Z,85.94
2022-12-18T14:04:54.041Z,85.94
2022-12-18T14:05:53.996Z,85.94
2022-12-18T14:06:54.099Z,86.04
2022-12-18T14:07:53.997Z,85.62
2022-12-18T14:08:54.002Z,85.10
2022-12-18T14:10:01.910Z,86.04
2022-12-18T14:10:53.965Z,84.99
2022-12-18T14:11:53.968Z,84.99
2022-12-18T14:12:53.950Z,85.83
2022-12-18T14:13:53.941Z,85.20
2022-12-18T14:14:55.059Z,85.20
2022-12-18T14:15:53.900Z,85.10
2022-12-18T14:16:53.997Z,85.10
2022-12-18T14:17:55.002Z,84.89
2022-12-18T14:18:53.884Z,85.62
2022-12-18T14:19:53.880Z,84.89
2022-12-18T14:20:53.871Z,85.20
2022-12-18T14:21:53.847Z,85.41
2022-12-18T14:22:53.837Z,85.31
2022-12-18T14:23:53.811Z,85.20
2022-12-18T14:24:53.833Z,85.52
2022-12-18T14:25:53.797Z,86.04
2022-12-18T14:26:53.786Z,86.04
2022-12-18T14:27:53.801Z,85.20
2022-12-18T14:28:53.799Z,85.41
2022-12-18T14:29:53.791Z,86.36
2022-12-18T14:30:53.823Z,86.57
2022-12-18T14:31:53.742Z,86.15
2022-12-18T14:32:53.731Z,86.46
2022-12-18T14:33:53.715Z,85.62
2022-12-18T14:34:53.716Z,85.31
2022-12-18T14:35:53.708Z,84.99
2022-12-18T14:36:53.690Z,85.31
2022-12-18T14:37:53.664Z,85.41
2022-12-18T14:38:53.684Z,85.20
2022-12-18T14:39:53.647Z,86.25
2022-12-18T14:40:53.694Z,85.52
2022-12-18T14:41:53.639Z,85.62
2022-12-18T14:42:53.658Z,85.52
2022-12-18T14:43:53.622Z,85.94
2022-12-18T14:45:53.658Z,86.68
2022-12-18T14:46:53.589Z,86.15
2022-12-18T14:47:53.571Z,85.73
2022-12-18T14:48:53.595Z,86.57
2022-12-18T14:49:53.556Z,86.36
2022-12-18T14:50:53.552Z,86.15
2022-12-18T14:51:53.527Z,86.04
2022-12-18T14:52:53.558Z,86.68
2022-12-18T14:53:55.091Z,86.46
2022-12-18T14:54:53.496Z,86.78
2022-12-18T14:55:53.495Z,86.68
2022-12-18T14:56:53.487Z,85.94
2022-12-18T14:57:53.498Z,86.57
2022-12-18T14:58:53.494Z,86.78
2022-12-18T14:59:53.456Z,86.88
2022-12-18T15:00:53.449Z,86.68
2022-12-18T15:01:53.532Z,86.71
2022-12-18T15:02:53.562Z,86.57
2022-12-18T15:03:53.448Z,86.93
2022-12-18T15:04:53.453Z,86.93
2022-12-18T15:05:53.377Z,86.51
2022-12-18T15:06:53.404Z,86.71
2022-12-18T15:07:53.374Z,86.61
2022-12-18T15:08:53.374Z,87.35
2022-12-18T15:09:53.342Z,86.93
2022-12-18T15:10:53.412Z,86.61
2022-12-18T15:11:53.319Z,86.71
2022-12-18T15:12:53.320Z,87.13
2022-12-18T15:13:53.307Z,86.93
2022-12-18T15:14:53.312Z,87.13
2022-12-18T15:15:53.358Z,87.03
2022-12-18T15:16:53.275Z,87.24
2022-12-18T15:17:53.256Z,87.55
2022-12-18T15:18:53.288Z,87.24
2022-12-18T15:19:53.236Z,87.24
2022-12-18T15:20:53.293Z,87.98
2022-12-18T15:21:53.244Z,88.08
2022-12-18T15:22:53.301Z,88.08
2022-12-18T15:23:53.198Z,88.08
2022-12-18T15:24:53.204Z,88.40
2022-12-18T15:25:53.164Z,87.66
2022-12-18T15:26:53.215Z,88.29
2022-12-18T15:27:53.159Z,87.87
2022-12-18T15:28:53.164Z,88.50
2022-12-18T15:29:53.146Z,88.50
2022-12-18T15:30:53.223Z,88.18
2022-12-18T15:31:53.120Z,87.76
2022-12-18T15:32:53.158Z,87.98
2022-12-18T15:33:53.091Z,88.18
2022-12-18T15:34:53.104Z,87.98
2022-12-18T15:35:53.088Z,87.98
2022-12-18T15:36:53.087Z,88.02
2022-12-18T15:37:53.060Z,88.08
2022-12-18T15:38:53.078Z,88.12
2022-12-18T15:39:53.036Z,88.33
2022-12-18T15:40:53.029Z,88.54
2022-12-18T15:41:53.030Z,88.33
2022-12-18T15:42:53.031Z,88.44
2022-12-18T15:43:53.003Z,88.65
2022-12-18T15:44:53.018Z,89.39
2022-12-18T15:45:53.036Z,88.96
2022-12-18T15:46:52.981Z,88.65
2022-12-18T15:47:52.947Z,88.44
2022-12-18T15:48:57.990Z,88.54
2022-12-18T15:49:52.970Z,88.44
2022-12-18T15:50:53.013Z,88.54
2022-12-18T15:51:52.968Z,88.65
2022-12-18T15:52:52.967Z,88.86
2022-12-18T15:53:52.929Z,88.75
2022-12-18T15:54:52.948Z,89.28
2022-12-18T15:55:56.564Z,88.75
2022-12-18T15:56:52.945Z,89.28
2022-12-18T15:57:52.923Z,89.07
2022-12-18T15:58:52.912Z,88.44
2022-12-18T15:59:52.873Z,88.44
2022-12-18T16:00:52.882Z,88.75
2022-12-18T16:01:52.981Z,88.86
2022-12-18T16:02:53.180Z,89.07
2022-12-18T16:03:52.883Z,88.96
2022-12-18T16:04:52.851Z,88.75
2022-12-18T16:05:52.826Z,88.65
2022-12-18T16:07:52.813Z,88.75
2022-12-18T16:08:52.814Z,89.07
2022-12-18T16:09:52.826Z,89.07
2022-12-18T16:10:52.784Z,89.39
2022-12-18T16:11:52.753Z,88.65
2022-12-18T16:12:52.777Z,88.75
2022-12-18T16:13:52.762Z,88.86
2022-12-18T16:14:52.743Z,89.28
2022-12-18T16:15:52.786Z,89.59
2022-12-18T16:16:52.722Z,89.39
2022-12-18T16:17:52.779Z,89.39
2022-12-18T16:18:52.721Z,89.49
2022-12-18T16:19:52.665Z,89.39
2022-12-18T16:20:52.674Z,89.49
2022-12-18T16:21:52.670Z,89.39
2022-12-18T16:22:52.648Z,89.17
2022-12-18T16:23:52.676Z,88.96
2022-12-18T16:24:52.648Z,88.54
2022-12-18T16:25:52.603Z,88.75
2022-12-18T16:26:52.620Z,89.07
2022-12-18T16:27:52.587Z,89.07
2022-12-18T16:28:52.591Z,88.96
2022-12-18T16:29:52.590Z,88.86
2022-12-18T16:30:52.661Z,88.86
2022-12-18T16:31:52.545Z,88.96
2022-12-18T16:32:52.549Z,89.28
2022-12-18T16:33:52.524Z,89.28
2022-12-18T16:34:52.547Z,89.49
2022-12-18T16:35:52.509Z,89.59
2022-12-18T16:36:52.505Z,89.49
2022-12-18T16:37:52.493Z,89.59
2022-12-18T16:38:52.488Z,89.49
2022-12-18T16:39:52.460Z,89.59
2022-12-18T16:40:52.480Z,89.59
2022-12-18T16:41:52.467Z,89.28
2022-12-18T16:42:52.482Z,89.49
2022-12-18T16:43:54.987Z,89.81
2022-12-18T16:44:52.429Z,89.70
2022-12-18T16:45:52.396Z,89.59
2022-12-18T16:46:52.506Z,89.49
2022-12-18T16:47:52.392Z,89.39
2022-12-18T16:48:52.419Z,89.49
2022-12-18T16:49:52.357Z,89.81
2022-12-18T16:50:52.367Z,89.91
2022-12-18T16:51:52.340Z,89.49
2022-12-18T16:52:52.381Z,90.01
2022-12-18T16:53:52.310Z,90.23
2022-12-18T16:54:52.325Z,90.01
2022-12-18T16:55:52.316Z,89.91
2022-12-18T16:56:52.309Z,90.12
2022-12-18T16:57:52.269Z,90.12
2022-12-18T16:58:52.269Z,90.01
2022-12-18T16:59:52.252Z,90.01
2022-12-18T17:00:52.424Z,89.70
2022-12-18T17:01:52.392Z,89.81
2022-12-18T17:02:52.460Z,89.81
2022-12-18T17:03:52.260Z,89.91
2022-12-18T17:04:52.227Z,89.49
2022-12-18T17:05:53.369Z,89.59
2022-12-18T17:06:52.226Z,90.01
2022-12-18T17:07:52.176Z,90.01
2022-12-18T17:08:52.177Z,89.91